createdAt,value
2018-08-12T00:00:14.909Z,1.40
2018-08-12T00:02:43.512Z,1.80
2018-08-12T00:05:12.039Z,1.97
2018-08-12T00:07:40.568Z,1.53
2018-08-12T00:10:10.184Z,1.60
2018-08-12T00:12:38.756Z,2.00
2018-08-12T00:15:09.370Z,1.63
2018-08-12T00:17:37.925Z,1.57
2018-08-12T00:20:08.367Z,2.10
2018-08-12T00:22:36.881Z,1.50
2018-08-12T00:25:08.182Z,3.20
2018-08-12T00:27:36.646Z,1.70
2018-08-12T00:30:06.281Z,1.80
2018-08-12T00:32:34.772Z,1.97
2018-08-12T00:35:03.308Z,1.90
2018-08-12T00:37:31.777Z,1.87
2018-08-12T00:40:00.265Z,1.97
2018-08-12T00:42:28.730Z,1.90
2018-08-12T00:44:57.227Z,2.10
2018-08-12T00:47:25.689Z,2.00
2018-08-12T00:49:54.237Z,1.70
2018-08-12T00:52:22.715Z,1.67
2018-08-12T00:54:51.293Z,2.30
2018-08-12T00:57:19.801Z,1.80
2018-08-12T00:59:48.351Z,1.60
2018-08-12T01:02:16.813Z,1.70
2018-08-12T01:04:45.297Z,1.53
2018-08-12T01:07:13.771Z,2.17
2018-08-12T01:09:42.342Z,1.80
2018-08-12T01:12:10.829Z,1.60
2018-08-12T01:14:39.325Z,1.83
2018-08-12T01:17:07.828Z,1.53
2018-08-12T01:19:36.417Z,1.90
2018-08-12T01:22:05.142Z,2.00
2018-08-12T01:24:33.644Z,1.83
2018-08-12T01:27:02.162Z,1.80
2018-08-12T01:29:30.709Z,1.53
2018-08-12T01:31:59.159Z,1.50
2018-08-12T01:34:27.669Z,2.03
2018-08-12T01:36:56.143Z,2.10
2018-08-12T01:39:24.613Z,1.70
2018-08-12T01:41:53.147Z,2.00
2018-08-12T01:44:22.139Z,1.87
2018-08-12T01:46:50.575Z,1.80
2018-08-12T01:49:19.086Z,2.00
2018-08-12T01:51:47.541Z,1.90
2018-08-12T01:54:16.013Z,2.00
2018-08-12T01:56:44.500Z,2.23
2018-08-12T01:59:13.054Z,2.00
2018-08-12T02:01:41.493Z,1.93
2018-08-12T02:04:10.002Z,1.50
2018-08-12T02:06:38.598Z,1.90
2018-08-12T02:09:08.761Z,1.80
2018-08-12T02:11:37.282Z,1.77
2018-08-12T02:14:06.001Z,1.60
2018-08-12T02:16:34.581Z,1.67
2018-08-12T02:19:03.098Z,2.17
2018-08-12T02:21:31.591Z,1.80
2018-08-12T02:24:00.113Z,1.97
2018-08-12T02:26:28.586Z,1.83
2018-08-12T02:28:57.099Z,1.80
2018-08-12T02:31:25.552Z,1.73
2018-08-12T02:33:54.122Z,1.90
2018-08-12T02:36:22.599Z,1.80
2018-08-12T02:38:51.138Z,1.53
2018-08-12T02:41:19.627Z,2.10
2018-08-12T02:43:48.146Z,1.77
2018-08-12T02:46:16.620Z,1.77
2018-08-12T02:48:45.114Z,2.00
2018-08-12T02:51:13.580Z,1.67
2018-08-12T02:53:42.093Z,1.73
2018-08-12T02:56:10.558Z,2.00
2018-08-12T02:58:39.081Z,1.90
2018-08-12T03:01:07.598Z,1.83
2018-08-12T03:03:36.093Z,2.10
2018-08-12T03:06:04.585Z,1.97
2018-08-12T03:08:33.106Z,1.60
2018-08-12T03:11:01.625Z,1.90
2018-08-12T03:13:30.144Z,1.50
2018-08-12T03:15:58.583Z,2.07
2018-08-12T03:18:27.037Z,1.97
2018-08-12T03:20:55.550Z,1.70
2018-08-12T03:23:24.043Z,1.60
2018-08-12T03:25:52.532Z,1.67
2018-08-12T03:28:21.008Z,1.40
2018-08-12T03:30:49.525Z,1.40
2018-08-12T03:33:18.025Z,1.90
2018-08-12T03:35:46.526Z,1.53
2018-08-12T03:38:15.006Z,1.73
2018-08-12T03:40:43.516Z,1.67
2018-08-12T03:43:11.997Z,2.07
2018-08-12T03:45:40.498Z,1.80
2018-08-12T03:48:08.992Z,1.77
2018-08-12T03:50:37.481Z,1.70
2018-08-12T03:53:06.467Z,2.00
2018-08-12T03:55:35.002Z,1.87
2018-08-12T03:58:03.494Z,2.00
2018-08-12T04:00:32.005Z,1.93
2018-08-12T04:03:00.462Z,1.73
2018-08-12T04:05:28.954Z,1.50
2018-08-12T04:07:57.469Z,1.90
2018-08-12T04:10:25.966Z,2.03
2018-08-12T04:12:54.408Z,1.40
2018-08-12T04:15:22.961Z,1.80
2018-08-12T04:17:53.155Z,1.90
2018-08-12T04:20:21.645Z,1.50
2018-08-12T04:22:50.119Z,1.80
2018-08-12T04:28:21.680Z,1.80
2018-08-12T04:30:50.196Z,2.00
2018-08-12T04:33:18.661Z,1.73
2018-08-12T04:35:47.161Z,1.97
2018-08-12T04:38:15.605Z,1.77
2018-08-12T04:40:44.121Z,1.77
2018-08-12T04:43:12.587Z,1.70
2018-08-12T04:45:41.082Z,1.70
2018-08-12T04:48:09.535Z,1.60
2018-08-12T04:50:37.998Z,2.00
2018-08-12T04:53:06.425Z,1.83
2018-08-12T04:55:34.970Z,2.00
2018-08-12T04:58:03.466Z,1.90
2018-08-12T05:00:31.988Z,1.80
2018-08-12T05:03:00.453Z,2.00
2018-08-12T05:05:28.937Z,1.60
2018-08-12T05:07:57.498Z,1.53
2018-08-12T05:10:26.013Z,1.83
2018-08-12T05:12:54.519Z,1.70
2018-08-12T05:15:22.993Z,1.60
2018-08-12T05:17:51.495Z,1.40
2018-08-12T05:20:19.996Z,1.70
2018-08-12T05:22:48.542Z,1.67
2018-08-12T05:25:17.040Z,1.67
2018-08-12T05:27:45.465Z,1.90
2018-08-12T05:30:13.926Z,1.73
2018-08-12T05:32:42.504Z,1.80
2018-08-12T05:35:12.764Z,1.50
2018-08-12T05:37:41.231Z,1.60
2018-08-12T05:40:11.190Z,1.47
2018-08-12T05:42:39.656Z,1.80
2018-08-12T05:45:09.379Z,1.80
2018-08-12T05:47:38.345Z,1.30
2018-08-12T05:50:08.080Z,1.70
2018-08-12T05:52:36.585Z,1.40
2018-08-12T05:55:05.354Z,1.30
2018-08-12T05:57:33.878Z,1.47
2018-08-12T06:00:02.434Z,1.40
2018-08-12T06:02:30.942Z,1.50
2018-08-12T06:04:59.450Z,1.47
2018-08-12T06:07:28.057Z,1.33
2018-08-12T06:09:56.536Z,1.10
2018-08-12T06:12:25.070Z,1.47
2018-08-12T06:14:53.573Z,1.60
2018-08-12T06:17:22.067Z,1.13
2018-08-12T06:19:50.546Z,1.20
2018-08-12T06:22:19.025Z,1.40
2018-08-12T06:24:47.459Z,1.20
2018-08-12T06:27:15.994Z,1.57
2018-08-12T06:29:44.457Z,1.53
2018-08-12T06:32:12.956Z,1.40
2018-08-12T06:34:41.492Z,1.10
2018-08-12T06:37:10.022Z,1.30
2018-08-12T06:39:38.474Z,1.50
2018-08-12T06:42:07.144Z,1.37
2018-08-12T06:44:35.631Z,1.10
2018-08-12T06:47:04.161Z,1.30
2018-08-12T06:49:32.644Z,1.40
2018-08-12T06:52:01.209Z,1.00
2018-08-12T06:54:29.693Z,1.00
2018-08-12T06:57:00.926Z,1.07
2018-08-12T06:59:29.486Z,1.00
2018-08-12T07:01:57.988Z,1.10
2018-08-12T07:04:27.178Z,1.10
2018-08-12T07:06:55.710Z,1.13
2018-08-12T07:09:24.178Z,1.00
2018-08-12T07:11:52.691Z,1.50
2018-08-12T07:14:21.203Z,1.20
2018-08-12T07:16:49.708Z,1.30
2018-08-12T07:19:18.205Z,1.10
2018-08-12T07:21:46.723Z,1.10
2018-08-12T07:24:15.193Z,1.00
2018-08-12T07:26:43.702Z,1.10
2018-08-12T07:29:12.149Z,0.87
2018-08-12T07:31:40.666Z,0.97
2018-08-12T07:34:09.138Z,1.20
2018-08-12T07:36:37.938Z,1.30
2018-08-12T07:39:07.903Z,1.00
2018-08-12T07:41:36.737Z,1.10
2018-08-12T07:44:05.258Z,0.90
2018-08-12T07:46:34.329Z,0.90
2018-08-12T07:49:03.026Z,1.17
2018-08-12T07:51:31.529Z,0.93
2018-08-12T07:54:00.026Z,1.00
2018-08-12T07:56:28.643Z,0.90
2018-08-12T07:58:57.164Z,1.10
2018-08-12T08:01:25.708Z,0.97
2018-08-12T08:03:54.252Z,1.10
2018-08-12T08:06:22.868Z,1.10
2018-08-12T08:08:51.289Z,1.00
2018-08-12T08:11:19.826Z,1.20
2018-08-12T08:13:48.366Z,1.00
2018-08-12T08:16:16.855Z,1.00
2018-08-12T08:18:45.337Z,1.00
2018-08-12T08:21:14.278Z,1.03
2018-08-12T08:23:42.733Z,0.90
2018-08-12T08:26:11.223Z,1.10
2018-08-12T08:28:39.726Z,1.00
2018-08-12T08:31:08.236Z,1.10
2018-08-12T08:33:36.700Z,1.17
2018-08-12T08:36:05.210Z,0.93
2018-08-12T08:38:33.706Z,1.13
2018-08-12T08:41:02.157Z,0.90
2018-08-12T08:43:30.702Z,1.20
2018-08-12T08:45:59.198Z,1.17
2018-08-12T08:48:27.757Z,0.80
2018-08-12T08:50:56.267Z,1.02
2018-08-12T08:53:25.025Z,0.85
2018-08-12T08:55:53.571Z,1.07
2018-08-12T08:58:22.060Z,1.10
2018-08-12T09:00:50.654Z,0.98
2018-08-12T09:03:19.439Z,1.00
2018-08-12T09:05:48.685Z,1.00
2018-08-12T09:08:17.496Z,1.05
2018-08-12T09:10:45.912Z,1.22
2018-08-12T09:13:14.797Z,1.10
2018-08-12T09:15:44.198Z,1.10
2018-08-12T09:18:12.777Z,1.17
2018-08-12T09:20:41.223Z,0.90
2018-08-12T09:23:09.708Z,0.80
2018-08-12T09:25:38.250Z,1.22
2018-08-12T09:28:06.806Z,1.25
2018-08-12T09:30:36.160Z,1.05
2018-08-12T09:33:08.809Z,0.88
2018-08-12T09:35:37.357Z,1.30
2018-08-12T09:38:05.926Z,0.95
2018-08-12T09:40:34.566Z,1.55
2018-08-12T09:43:03.820Z,1.52
2018-08-12T09:45:32.354Z,1.00
2018-08-12T09:48:00.973Z,0.90
2018-08-12T09:50:29.457Z,0.90
2018-08-12T09:52:57.953Z,0.93
2018-08-12T09:55:26.444Z,0.98
2018-08-12T09:57:54.988Z,1.10
2018-08-12T10:00:29.302Z,1.10
2018-08-12T10:02:58.165Z,1.00
2018-08-12T10:05:26.644Z,1.15
2018-08-12T10:07:55.211Z,1.12
2018-08-12T10:10:23.693Z,0.90
2018-08-12T10:12:52.258Z,1.05
2018-08-12T10:15:20.746Z,1.32
2018-08-12T10:17:52.181Z,0.90
2018-08-12T10:20:20.680Z,1.10
2018-08-12T10:22:49.272Z,1.00
2018-08-12T10:25:17.834Z,0.88
2018-08-12T10:27:46.746Z,1.05
2018-08-12T10:30:15.664Z,1.07
2018-08-12T10:32:44.255Z,0.80
2018-08-12T10:35:14.346Z,0.90
2018-08-12T10:37:43.440Z,0.98
2018-08-12T10:40:15.892Z,0.80
2018-08-12T10:42:45.305Z,0.88
2018-08-12T10:45:14.039Z,0.82
2018-08-12T10:47:43.898Z,1.00
2018-08-12T10:50:15.522Z,1.10
2018-08-12T10:52:45.076Z,0.70
2018-08-12T10:55:14.939Z,0.68
2018-08-12T10:57:43.617Z,1.00
2018-08-12T11:00:20.083Z,0.90
2018-08-12T11:02:48.740Z,0.80
2018-08-12T11:05:17.728Z,0.82
2018-08-12T11:07:48.731Z,0.90
2018-08-12T11:10:17.281Z,0.90
2018-08-12T11:12:45.916Z,0.78
2018-08-12T11:15:14.379Z,0.80
2018-08-12T11:17:42.895Z,0.80
2018-08-12T11:20:11.397Z,0.98
2018-08-12T11:22:40.006Z,0.90
2018-08-12T11:25:09.854Z,0.90
2018-08-12T11:27:38.499Z,0.90
2018-08-12T11:30:09.036Z,1.00
2018-08-12T11:32:37.573Z,0.75
2018-08-12T11:35:07.121Z,0.62
2018-08-12T11:37:35.738Z,0.90
2018-08-12T11:40:07.141Z,0.80
2018-08-12T11:42:47.993Z,0.90
2018-08-12T11:45:17.944Z,0.80
2018-08-12T11:47:47.366Z,1.42
2018-08-12T11:50:16.729Z,1.00
2018-08-12T11:52:45.861Z,1.10
2018-08-12T11:55:16.470Z,0.80
2018-08-12T11:57:45.127Z,1.00
2018-08-12T12:00:17.377Z,1.00
2018-08-12T12:02:47.581Z,0.75
2018-08-12T12:05:16.093Z,1.00
2018-08-12T12:07:44.877Z,0.90
2018-08-12T12:10:15.725Z,0.78
2018-08-12T12:12:45.378Z,0.70
2018-08-12T12:15:19.135Z,0.90
2018-08-12T12:17:48.030Z,0.90
2018-08-12T12:20:17.346Z,0.85
2018-08-12T12:22:46.564Z,0.62
2018-08-12T12:25:16.442Z,0.60
2018-08-12T12:27:44.951Z,0.95
2018-08-12T12:30:21.189Z,0.90
2018-08-12T12:32:50.920Z,1.00
2018-08-12T12:35:19.398Z,0.80
2018-08-12T12:37:47.939Z,0.80
2018-08-12T12:40:17.466Z,1.10
2018-08-12T12:42:46.546Z,0.98
2018-08-12T12:45:15.561Z,0.70
2018-08-12T12:47:44.342Z,0.70
2018-08-12T12:50:17.409Z,0.90
2018-08-12T12:52:46.758Z,0.80
2018-08-12T12:55:15.304Z,0.90
2018-08-12T12:57:43.815Z,0.85
2018-08-12T13:00:14.886Z,0.90
2018-08-12T13:02:46.843Z,0.80
2018-08-12T13:05:16.595Z,0.70
2018-08-12T13:07:46.033Z,0.90
2018-08-12T13:10:15.494Z,0.90
2018-08-12T13:12:44.196Z,0.90
2018-08-12T13:15:13.592Z,0.88
2018-08-12T13:17:42.217Z,0.70
2018-08-12T13:20:13.150Z,0.70
2018-08-12T13:22:42.203Z,0.70
2018-08-12T13:25:13.283Z,0.80
2018-08-12T13:27:42.618Z,0.70
2018-08-12T13:30:11.880Z,0.78
2018-08-12T13:32:41.147Z,0.90
2018-08-12T13:35:09.674Z,0.70
2018-08-12T13:37:38.338Z,0.90
2018-08-12T13:40:09.287Z,0.93
2018-08-12T13:42:38.711Z,0.75
2018-08-12T13:45:07.894Z,1.07
2018-08-12T13:47:36.447Z,0.78
2018-08-12T13:50:07.285Z,0.70
2018-08-12T13:52:35.806Z,0.95
2018-08-12T13:55:05.652Z,0.72
2018-08-12T13:57:34.344Z,0.82
2018-08-12T14:00:02.832Z,0.80
2018-08-12T14:02:31.294Z,0.85
2018-08-12T14:04:59.812Z,0.80
2018-08-12T14:07:28.367Z,0.72
2018-08-12T14:09:56.898Z,0.82
2018-08-12T14:12:25.446Z,0.85
2018-08-12T14:14:53.975Z,0.80
2018-08-12T14:17:22.483Z,0.70
2018-08-12T14:19:51.003Z,0.70
2018-08-12T14:22:19.496Z,0.70
2018-08-12T14:24:48.002Z,0.80
2018-08-12T14:27:16.515Z,0.60
2018-08-12T14:29:44.979Z,1.20
2018-08-12T14:32:13.466Z,0.65
2018-08-12T14:34:41.991Z,0.75
2018-08-12T14:37:10.436Z,0.75
2018-08-12T14:39:38.910Z,0.90
2018-08-12T14:42:07.413Z,0.80
2018-08-12T14:44:35.930Z,0.90
2018-08-12T14:47:04.456Z,0.75
2018-08-12T14:49:32.943Z,0.90
2018-08-12T14:52:01.399Z,0.70
2018-08-12T14:54:29.884Z,0.60
2018-08-12T14:56:58.416Z,0.90
2018-08-12T14:59:27.087Z,0.82
2018-08-12T15:01:55.544Z,1.00
2018-08-12T15:04:24.062Z,0.70
2018-08-12T15:06:52.596Z,1.02
2018-08-12T15:09:21.123Z,0.70
2018-08-12T15:11:49.944Z,0.88
2018-08-12T15:14:18.429Z,0.80
2018-08-12T15:16:46.903Z,0.90
2018-08-12T15:19:15.420Z,0.98
2018-08-12T15:21:43.879Z,0.90
2018-08-12T15:24:12.444Z,0.88
2018-08-12T15:26:40.903Z,0.62
2018-08-12T15:29:09.456Z,0.90
2018-08-12T15:31:37.933Z,0.93
2018-08-12T15:34:06.418Z,0.80
2018-08-12T15:36:34.886Z,0.82
2018-08-12T15:39:03.521Z,0.78
2018-08-12T15:41:32.067Z,0.90
2018-08-12T15:44:00.608Z,0.90
2018-08-12T15:46:29.062Z,0.70
2018-08-12T15:48:57.601Z,0.78
2018-08-12T15:51:26.197Z,1.12
2018-08-12T15:53:55.909Z,0.82
2018-08-12T15:56:24.734Z,0.90
2018-08-12T15:58:53.317Z,0.70
2018-08-12T16:01:22.559Z,0.90
2018-08-12T16:03:51.046Z,0.80
2018-08-12T16:06:22.734Z,1.07
2018-08-12T16:08:52.437Z,1.00
2018-08-12T16:11:21.185Z,0.93
2018-08-12T16:13:49.803Z,0.90
2018-08-12T16:16:18.423Z,1.00
2018-08-12T16:18:46.953Z,1.10
2018-08-12T16:21:15.431Z,0.90
2018-08-12T16:23:43.951Z,0.80
2018-08-12T16:26:12.479Z,0.90
2018-08-12T16:28:41.049Z,0.90
2018-08-12T16:31:10.070Z,1.00
2018-08-12T16:33:38.606Z,1.22
2018-08-12T16:36:07.058Z,0.93
2018-08-12T16:38:35.595Z,1.07
2018-08-12T16:41:04.101Z,1.00
2018-08-12T16:43:32.653Z,0.93
2018-08-12T16:46:01.133Z,0.90
2018-08-12T16:48:29.711Z,0.90
2018-08-12T16:50:58.175Z,1.00
2018-08-12T16:53:26.698Z,0.93
2018-08-12T16:55:55.156Z,1.10
2018-08-12T16:58:23.624Z,0.90
2018-08-12T17:00:52.099Z,1.00
2018-08-12T17:03:20.610Z,1.42
2018-08-12T17:05:49.113Z,1.15
2018-08-12T17:08:17.640Z,1.57
2018-08-12T17:10:46.150Z,0.90
2018-08-12T17:13:14.660Z,1.12
2018-08-12T17:15:43.189Z,1.00
2018-08-12T17:18:11.698Z,1.00
2018-08-12T17:20:40.238Z,1.10
2018-08-12T17:23:08.721Z,1.22
2018-08-12T17:25:37.315Z,0.80
2018-08-12T17:28:05.834Z,0.95
2018-08-12T17:30:34.345Z,1.10
2018-08-12T17:33:02.900Z,0.90
2018-08-12T17:35:31.445Z,0.80
2018-08-12T17:38:00.081Z,1.32
2018-08-12T17:40:29.216Z,1.00
2018-08-12T17:42:57.713Z,0.85
2018-08-12T17:45:26.702Z,1.20
2018-08-12T17:47:55.218Z,1.87
2018-08-12T17:50:23.697Z,3.60
2018-08-12T17:52:52.223Z,4.03
2018-08-12T17:55:20.652Z,1.57
2018-08-12T17:57:49.313Z,1.90
2018-08-12T18:00:17.800Z,3.08
2018-08-12T18:02:46.338Z,3.55
2018-08-12T18:05:14.866Z,2.10
2018-08-12T18:07:43.499Z,1.95
2018-08-12T18:10:12.057Z,2.40
2018-08-12T18:12:40.527Z,3.05
2018-08-12T18:15:10.569Z,2.92
2018-08-12T18:17:39.622Z,3.17
2018-08-12T18:20:08.199Z,2.50
2018-08-12T18:22:36.924Z,1.70
2018-08-12T18:25:06.727Z,2.33
2018-08-12T18:27:35.488Z,2.83
2018-08-12T18:30:04.102Z,2.27
2018-08-12T18:32:33.234Z,1.95
2018-08-12T18:35:01.766Z,1.87
2018-08-12T18:37:30.239Z,1.60
2018-08-12T18:39:58.790Z,1.70
2018-08-12T18:42:27.294Z,1.72
2018-08-12T18:44:55.819Z,1.95
2018-08-12T18:47:24.394Z,1.60
2018-08-12T18:49:52.949Z,1.70
2018-08-12T18:52:21.429Z,2.00
2018-08-12T18:54:50.811Z,2.22
2018-08-12T18:57:19.974Z,1.85
2018-08-12T18:59:48.438Z,1.90
2018-08-12T19:02:16.972Z,2.27
2018-08-12T19:04:45.736Z,1.75
2018-08-12T19:07:14.273Z,2.47
2018-08-12T19:09:42.823Z,2.07
2018-08-12T19:12:11.382Z,1.70
2018-08-12T19:14:39.828Z,2.37
2018-08-12T19:17:08.361Z,1.70
2018-08-12T19:19:36.802Z,1.67
2018-08-12T19:22:05.360Z,1.90
2018-08-12T19:24:33.858Z,1.60
2018-08-12T19:27:02.396Z,1.73
2018-08-12T19:29:30.900Z,1.43
2018-08-12T19:31:59.367Z,1.80
2018-08-12T19:34:27.851Z,1.90
2018-08-12T19:36:56.335Z,1.77
2018-08-12T19:39:24.832Z,1.50
2018-08-12T19:41:53.330Z,1.40
2018-08-12T19:44:21.891Z,1.20
2018-08-12T19:46:50.425Z,1.50
2018-08-12T19:49:19.406Z,1.50
2018-08-12T19:51:48.549Z,1.57
2018-08-12T19:54:17.018Z,1.60
2018-08-12T19:56:45.469Z,1.43
2018-08-12T19:59:13.953Z,1.70
2018-08-12T20:01:42.416Z,1.40
2018-08-12T20:04:10.947Z,1.37
2018-08-12T20:06:39.478Z,1.30
2018-08-12T20:09:09.735Z,1.30
2018-08-12T20:11:38.215Z,1.40
2018-08-12T20:14:07.036Z,1.30
2018-08-12T20:16:35.531Z,1.03
2018-08-12T20:19:03.992Z,1.10
2018-08-12T20:21:32.755Z,1.50
2018-08-12T20:24:01.559Z,1.57
2018-08-12T20:26:30.033Z,1.30
2018-08-12T20:28:58.572Z,1.30
2018-08-12T20:31:27.051Z,1.30
2018-08-12T20:33:55.596Z,1.40
2018-08-12T20:36:24.156Z,1.47
2018-08-12T20:38:52.709Z,1.20
2018-08-12T20:41:21.173Z,1.40
2018-08-12T20:43:49.663Z,1.20
2018-08-12T20:46:18.126Z,1.40
2018-08-12T20:48:46.668Z,1.50
2018-08-12T20:51:15.131Z,1.40
2018-08-12T20:53:43.596Z,1.33
2018-08-12T20:56:12.165Z,1.43
2018-08-12T20:58:40.629Z,1.30
2018-08-12T21:01:09.615Z,1.40
2018-08-12T21:03:38.100Z,1.80
2018-08-12T21:06:06.578Z,1.50
2018-08-12T21:08:35.123Z,1.40
2018-08-12T21:11:03.645Z,1.57
2018-08-12T21:13:32.298Z,1.30
2018-08-12T21:16:00.742Z,1.50
2018-08-12T21:18:29.260Z,1.27
2018-08-12T21:20:57.820Z,1.40
2018-08-12T21:23:26.436Z,1.67
2018-08-12T21:25:54.876Z,1.40
2018-08-12T21:28:23.419Z,1.50
2018-08-12T21:30:51.906Z,1.40
2018-08-12T21:33:20.449Z,1.47
2018-08-12T21:35:48.974Z,1.50
2018-08-12T21:38:17.410Z,1.23
2018-08-12T21:40:45.884Z,1.23
2018-08-12T21:43:14.405Z,1.50
2018-08-12T21:45:42.913Z,1.40
2018-08-12T21:48:11.400Z,1.30
2018-08-12T21:50:39.896Z,1.03
2018-08-12T21:53:08.413Z,1.30
2018-08-12T21:55:36.947Z,1.47
2018-08-12T21:58:06.005Z,1.67
2018-08-12T22:00:34.529Z,1.30
2018-08-12T22:03:03.008Z,1.50
2018-08-12T22:05:31.551Z,1.47
2018-08-12T22:08:04.261Z,1.30
2018-08-12T22:10:32.751Z,1.50
2018-08-12T22:13:01.228Z,1.70
2018-08-12T22:15:29.688Z,1.50
2018-08-12T22:17:58.150Z,1.50
2018-08-12T22:20:26.658Z,1.37
2018-08-12T22:22:55.112Z,1.40
2018-08-12T22:25:24.215Z,1.30
2018-08-12T22:27:52.727Z,1.40
2018-08-12T22:30:21.223Z,1.33
2018-08-12T22:32:49.695Z,1.50
2018-08-12T22:35:18.389Z,1.27
2018-08-12T22:37:46.886Z,1.60
2018-08-12T22:40:15.341Z,1.10
2018-08-12T22:42:43.800Z,1.63
2018-08-12T22:45:12.717Z,1.40
2018-08-12T22:47:41.765Z,1.30
2018-08-12T22:50:10.289Z,1.37
2018-08-12T22:52:38.897Z,1.53
2018-08-12T22:55:08.065Z,1.67
2018-08-12T22:57:36.813Z,1.20
2018-08-12T23:00:08.850Z,1.70
2018-08-12T23:02:37.337Z,1.40
2018-08-12T23:05:05.895Z,1.20
2018-08-12T23:07:34.381Z,1.43
2018-08-12T23:10:02.922Z,1.50
2018-08-12T23:12:31.405Z,1.60
2018-08-12T23:15:11.103Z,1.67
2018-08-12T23:17:39.570Z,1.50
2018-08-12T23:20:08.103Z,1.57
2018-08-12T23:22:36.582Z,1.40
2018-08-12T23:25:05.140Z,1.60
2018-08-12T23:27:33.610Z,1.60
2018-08-12T23:30:02.331Z,1.57
2018-08-12T23:32:30.789Z,1.60
2018-08-12T23:34:59.308Z,1.63
2018-08-12T23:37:27.909Z,1.60
2018-08-12T23:39:56.458Z,1.47
2018-08-12T23:42:24.923Z,1.63
2018-08-12T23:44:53.430Z,1.60
2018-08-12T23:47:21.888Z,1.47
2018-08-12T23:49:50.405Z,1.60
2018-08-12T23:52:18.905Z,1.60
2018-08-12T23:54:47.434Z,1.60
2018-08-12T23:57:15.922Z,1.90
2018-08-12T23:59:44.428Z,1.33
